Boley, Oklahoma
Current Conditions -  °F | °C
As of 3:15 PM on Sunday 21 Dec 2014 (Local Time) from KCQB Reporting Station
Overcast Overcast  
Wind Chill: 50°   Ceiling: 1300
Heat Index: 50°   Visibility: 10mi
Dew Point: 46°   Wind: 15mph
Humidity: 87%   Direction: 170°S
Pressure: 29.82"   Gusts: 21mph
Location:  35.49°N, 96.48°W
Report Text: KCQB 212115Z AUTO 17013G18KT 10SM OVC013 10/08 A2982 RMK AO2
Loading
Personal Weather Stations






























Interactive Weather Map New forecast layout! Learn more

10-Day Weather Forecast

Advertisements
Track Severe Weather on mobile